createdAt,value
2023-04-24T00:01:16.278Z,12.01
2023-04-24T00:03:46.369Z,12.04
2023-04-24T00:06:13.628Z,12.04
2023-04-24T00:08:44.783Z,12.05
2023-04-24T00:11:11.778Z,12.04
2023-04-24T00:13:40.754Z,12.06
2023-04-24T00:16:07.472Z,12.06
2023-04-24T00:18:34.175Z,12.04
2023-04-24T00:21:02.935Z,12.00
2023-04-24T00:23:29.652Z,11.98
2023-04-24T00:25:56.423Z,11.92
2023-04-24T00:28:23.181Z,11.91
2023-04-24T00:30:50.405Z,11.92
2023-04-24T00:33:17.147Z,11.83
2023-04-24T00:35:43.780Z,11.78
2023-04-24T00:38:10.396Z,11.77
2023-04-24T00:40:37.211Z,11.74
2023-04-24T00:43:10.951Z,11.64
2023-04-24T00:45:37.790Z,11.53
2023-04-24T00:48:08.738Z,11.43
2023-04-24T00:50:42.629Z,11.38
2023-04-24T00:53:09.528Z,11.36
2023-04-24T00:55:38.361Z,11.28
2023-04-24T00:58:12.129Z,11.22
2023-04-24T01:00:41.842Z,11.19
2023-04-24T01:03:12.482Z,11.13
2023-04-24T01:05:41.960Z,11.09
2023-04-24T01:08:09.058Z,11.00
2023-04-24T01:10:43.585Z,10.89
2023-04-24T01:13:10.732Z,10.78
2023-04-24T01:15:43.668Z,10.68
2023-04-24T01:18:10.385Z,10.62
2023-04-24T01:20:48.380Z,10.58
2023-04-24T01:23:18.628Z,10.50
2023-04-24T01:25:46.100Z,10.47
2023-04-24T01:28:17.665Z,10.41
2023-04-24T01:30:45.644Z,10.36
2023-04-24T01:33:13.002Z,10.32
2023-04-24T01:35:43.502Z,10.28
2023-04-24T01:38:10.399Z,10.25
2023-04-24T01:40:37.113Z,10.23
2023-04-24T01:43:04.433Z,10.21
2023-04-24T01:45:31.291Z,10.21
2023-04-24T01:47:58.741Z,10.21
2023-04-24T01:50:25.855Z,10.21
2023-04-24T01:52:55.086Z,10.18
2023-04-24T01:55:22.002Z,10.15
2023-04-24T01:57:48.821Z,10.16
2023-04-24T02:00:16.080Z,10.17
2023-04-24T02:02:46.447Z,10.20
2023-04-24T02:05:14.399Z,10.23
2023-04-24T02:07:43.280Z,10.19
2023-04-24T02:10:11.630Z,10.16
2023-04-24T02:12:38.564Z,10.11
2023-04-24T02:15:08.614Z,10.10
2023-04-24T02:17:35.429Z,10.04
2023-04-24T02:20:28.452Z,10.03
2023-04-24T02:22:56.118Z,10.04
2023-04-24T02:25:23.339Z,10.00
2023-04-24T02:27:50.184Z,9.93
2023-04-24T02:30:17.062Z,9.84
2023-04-24T02:32:43.877Z,9.85
2023-04-24T02:35:15.260Z,9.83
2023-04-24T02:37:41.946Z,9.76
2023-04-24T02:40:11.886Z,9.79
2023-04-24T02:42:38.679Z,9.77
2023-04-24T02:45:06.608Z,9.67
2023-04-24T02:47:33.450Z,9.55
2023-04-24T02:50:00.056Z,9.60
2023-04-24T02:52:26.743Z,9.72
2023-04-24T02:54:55.989Z,9.77
2023-04-24T02:57:22.718Z,9.82
2023-04-24T02:59:49.453Z,9.85
2023-04-24T03:02:16.245Z,9.83
2023-04-24T03:04:46.718Z,9.81
2023-04-24T03:07:13.665Z,9.86
2023-04-24T03:09:45.448Z,9.87
2023-04-24T03:12:12.182Z,9.82
2023-04-24T03:14:38.934Z,9.79
2023-04-24T03:17:11.378Z,9.79
2023-04-24T03:19:37.967Z,9.62
2023-04-24T03:22:10.020Z,9.54
2023-04-24T03:24:36.790Z,9.40
2023-04-24T03:27:07.970Z,9.31
2023-04-24T03:29:34.722Z,9.29
2023-04-24T03:32:01.623Z,9.31
2023-04-24T03:34:36.516Z,9.33
2023-04-24T03:37:06.235Z,9.31
2023-04-24T03:39:32.935Z,9.34
2023-04-24T03:41:59.542Z,9.31
2023-04-24T03:44:26.328Z,9.21
2023-04-24T03:46:55.453Z,9.09
2023-04-24T03:49:22.980Z,9.03
2023-04-24T03:51:49.758Z,8.98
2023-04-24T03:54:16.486Z,8.96
2023-04-24T03:56:43.133Z,8.90
2023-04-24T03:59:10.006Z,8.98
2023-04-24T04:01:38.187Z,9.01
2023-04-24T04:04:09.097Z,8.92
2023-04-24T04:06:37.276Z,8.92
2023-04-24T04:09:04.219Z,9.02
2023-04-24T04:11:31.542Z,8.99
2023-04-24T04:13:58.380Z,8.95
2023-04-24T04:16:31.000Z,8.90
2023-04-24T04:18:57.949Z,8.78
2023-04-24T04:21:24.993Z,8.62
2023-04-24T04:23:51.655Z,8.64
2023-04-24T04:26:20.175Z,8.60
2023-04-24T04:28:48.689Z,8.61
2023-04-24T04:31:18.219Z,8.66
2023-04-24T04:33:45.104Z,8.79
2023-04-24T04:36:18.262Z,8.88
2023-04-24T04:38:48.450Z,8.98
2023-04-24T04:41:17.893Z,9.09
2023-04-24T04:43:46.952Z,9.12
2023-04-24T04:46:13.593Z,9.17
2023-04-24T04:48:41.308Z,9.28
2023-04-24T04:51:11.379Z,9.38
2023-04-24T04:53:43.594Z,9.56
2023-04-24T04:56:10.609Z,9.74
2023-04-24T04:58:37.167Z,9.87
2023-04-24T05:01:04.151Z,10.01
2023-04-24T05:03:30.898Z,10.06
2023-04-24T05:05:59.357Z,10.17
2023-04-24T05:08:27.521Z,10.20
2023-04-24T05:29:55.021Z,10.93
2023-04-24T05:32:24.304Z,11.05
2023-04-24T05:45:46.824Z,11.60
2023-04-24T06:39:45.711Z,11.71
2023-04-24T06:42:12.835Z,11.69
2023-04-24T06:44:42.420Z,11.78
2023-04-24T06:47:18.801Z,11.84
2023-04-24T06:52:28.747Z,12.08
2023-04-24T06:55:04.793Z,12.20
2023-04-24T06:57:34.815Z,12.28
2023-04-24T07:00:01.892Z,12.42
2023-04-24T07:02:28.695Z,12.61
2023-04-24T07:04:55.548Z,12.77
2023-04-24T07:07:24.253Z,12.81
2023-04-24T07:09:52.099Z,12.76
2023-04-24T07:12:22.744Z,12.83
2023-04-24T07:14:49.411Z,13.28
2023-04-24T07:17:16.111Z,13.42
2023-04-24T07:19:43.463Z,13.45
2023-04-24T07:22:15.527Z,13.44
2023-04-24T07:24:42.182Z,13.60
2023-04-24T07:27:08.825Z,13.58
2023-04-24T07:29:36.535Z,13.60
2023-04-24T07:32:04.515Z,13.41
2023-04-24T07:34:31.151Z,13.29
2023-04-24T07:37:00.676Z,13.03
2023-04-24T07:39:27.599Z,12.99
2023-04-24T07:41:56.710Z,12.89
2023-04-24T07:44:23.374Z,12.69
2023-04-24T07:46:50.502Z,12.64
2023-04-24T07:49:19.296Z,12.58
2023-04-24T07:51:49.273Z,12.81
2023-04-24T07:54:16.177Z,12.96
2023-04-24T07:56:44.911Z,13.03
2023-04-24T07:59:14.604Z,12.99
2023-04-24T08:01:44.254Z,12.88
2023-04-24T08:04:11.148Z,12.90
2023-04-24T08:06:38.096Z,13.06
2023-04-24T08:09:04.864Z,13.00
2023-04-24T08:11:31.602Z,12.97
2023-04-24T08:13:58.655Z,13.17
2023-04-24T08:16:25.499Z,13.01
2023-04-24T08:18:54.142Z,12.94
2023-04-24T08:21:21.694Z,13.01
2023-04-24T08:23:48.500Z,12.99
2023-04-24T08:26:18.224Z,13.02
2023-04-24T08:28:48.030Z,13.12
2023-04-24T08:31:19.611Z,13.15
2023-04-24T08:33:52.027Z,13.25
2023-04-24T08:36:19.000Z,13.21
2023-04-24T08:38:47.396Z,13.44
2023-04-24T08:41:19.967Z,13.67
2023-04-24T08:43:51.571Z,13.78
2023-04-24T08:46:24.484Z,13.90
2023-04-24T08:48:56.386Z,13.90
2023-04-24T08:51:28.510Z,14.18
2023-04-24T08:53:55.954Z,14.34
2023-04-24T08:56:28.129Z,14.36
2023-04-24T08:58:55.832Z,14.18
2023-04-24T09:01:26.124Z,14.18
2023-04-24T09:03:57.285Z,14.33
2023-04-24T09:06:29.753Z,14.15
2023-04-24T09:08:57.409Z,14.29
2023-04-24T09:11:26.599Z,14.28
2023-04-24T09:13:58.709Z,14.48
2023-04-24T09:16:29.098Z,14.45
2023-04-24T09:18:57.142Z,14.57
2023-04-24T09:21:26.344Z,14.56
2023-04-24T09:24:03.901Z,14.38
2023-04-24T09:26:33.624Z,13.86
2023-04-24T09:29:01.792Z,13.56
2023-04-24T09:31:30.805Z,13.61
2023-04-24T09:34:08.709Z,13.64
2023-04-24T09:36:43.617Z,13.88
2023-04-24T09:39:18.572Z,13.66
2023-04-24T09:42:00.867Z,13.69
2023-04-24T09:44:30.740Z,13.39
2023-04-24T09:47:01.563Z,13.38
2023-04-24T09:49:34.171Z,13.55
2023-04-24T09:52:11.421Z,13.87
2023-04-24T09:54:40.920Z,14.07
2023-04-24T09:57:11.148Z,14.14
2023-04-24T09:59:45.623Z,14.09
2023-04-24T10:02:22.187Z,14.01
2023-04-24T10:04:58.137Z,13.84
2023-04-24T10:07:30.258Z,13.89
2023-04-24T10:09:57.622Z,13.89
2023-04-24T10:12:26.150Z,13.82
2023-04-24T10:14:58.391Z,13.97
2023-04-24T10:17:27.052Z,13.93
2023-04-24T10:20:02.336Z,14.18
2023-04-24T10:22:34.847Z,14.28
2023-04-24T10:25:06.468Z,13.95
2023-04-24T10:41:28.608Z,15.61
2023-04-24T10:44:16.560Z,15.22
2023-04-24T10:46:56.753Z,15.19
2023-04-24T10:49:33.942Z,14.86
2023-04-24T10:52:08.701Z,15.16
2023-04-24T10:54:48.082Z,15.04
2023-04-24T10:57:31.075Z,15.69
2023-04-24T11:17:33.251Z,15.44
2023-04-24T11:22:58.672Z,15.59
2023-04-24T11:25:26.142Z,15.21
2023-04-24T11:28:06.468Z,14.95
2023-04-24T11:30:43.978Z,14.76
2023-04-24T11:33:10.819Z,14.25
2023-04-24T11:35:42.079Z,14.15
2023-04-24T11:38:24.117Z,14.38
2023-04-24T11:40:56.974Z,14.64
2023-04-24T11:43:28.943Z,14.55
2023-04-24T11:46:01.239Z,14.33
2023-04-24T11:48:30.686Z,14.11
2023-04-24T11:50:57.627Z,14.03
2023-04-24T11:53:24.930Z,13.99
2023-04-24T11:56:04.967Z,13.88
2023-04-24T11:58:46.142Z,13.90
2023-04-24T12:01:13.149Z,14.43
2023-04-24T12:03:44.451Z,14.89
2023-04-24T12:06:17.700Z,15.38
2023-04-24T12:08:51.446Z,15.51
2023-04-24T12:11:18.978Z,15.40
2023-04-24T12:13:48.768Z,15.10
2023-04-24T12:16:15.719Z,15.35
2023-04-24T12:18:53.487Z,15.99
2023-04-24T12:21:32.554Z,16.17
2023-04-24T12:23:59.523Z,16.34
2023-04-24T12:26:29.067Z,16.58
2023-04-24T12:28:56.028Z,15.75
2023-04-24T12:31:25.728Z,15.49
2023-04-24T12:33:54.940Z,15.52
2023-04-24T12:36:25.118Z,16.14
2023-04-24T12:39:15.381Z,17.43
2023-04-24T12:42:00.368Z,17.50
2023-04-24T12:44:35.621Z,16.17
2023-04-24T12:47:02.994Z,15.47
2023-04-24T12:49:32.147Z,15.22
2023-04-24T12:51:58.895Z,14.81
2023-04-24T12:54:34.773Z,14.96
2023-04-24T12:57:15.038Z,14.90
2023-04-24T12:59:49.264Z,14.96
2023-04-24T13:02:18.725Z,15.64
2023-04-24T13:05:03.003Z,17.23
2023-04-24T13:07:34.249Z,17.51
2023-04-24T13:10:01.368Z,16.63
2023-04-24T13:12:28.180Z,16.36
2023-04-24T13:14:59.653Z,16.97
2023-04-24T13:17:26.585Z,16.54
2023-04-24T13:19:56.437Z,16.75
2023-04-24T13:22:26.225Z,17.18
2023-04-24T13:24:53.007Z,17.72
2023-04-24T13:27:19.968Z,18.48
2023-04-24T13:29:55.904Z,19.01
2023-04-24T13:32:24.847Z,18.30
2023-04-24T13:35:16.195Z,17.74
2023-04-24T13:37:50.547Z,17.31
2023-04-24T13:40:20.752Z,17.09
2023-04-24T13:42:47.692Z,17.97
2023-04-24T13:45:24.730Z,18.04
2023-04-24T13:47:56.590Z,17.99
2023-04-24T13:50:27.161Z,16.77
2023-04-24T13:53:02.646Z,16.37
2023-04-24T13:55:30.499Z,16.12
2023-04-24T13:57:58.788Z,16.00
2023-04-24T14:00:31.782Z,16.74
2023-04-24T14:02:58.663Z,16.20
2023-04-24T14:05:28.486Z,15.72
2023-04-24T14:07:57.898Z,15.42
2023-04-24T14:10:28.231Z,15.43
2023-04-24T14:12:55.876Z,15.58
2023-04-24T14:15:29.988Z,15.80
2023-04-24T14:17:58.553Z,16.07
2023-04-24T14:20:30.865Z,16.15
2023-04-24T14:23:00.035Z,15.91
2023-04-24T14:25:35.425Z,16.12
2023-04-24T14:28:02.502Z,16.59
2023-04-24T14:30:29.406Z,15.79
2023-04-24T14:33:06.243Z,15.04
2023-04-24T14:35:35.057Z,14.98
2023-04-24T14:38:01.998Z,15.23
2023-04-24T14:43:05.090Z,15.51
2023-04-24T14:45:32.069Z,15.52
2023-04-24T14:47:58.908Z,14.73
2023-04-24T15:04:01.506Z,13.17
2023-04-24T15:06:32.478Z,13.03
2023-04-24T15:28:10.160Z,12.83
2023-04-24T15:30:37.183Z,12.84
2023-04-24T15:33:04.086Z,13.00
2023-04-24T15:35:31.268Z,12.88
2023-04-24T15:37:58.232Z,12.48
2023-04-24T15:40:25.204Z,12.19
2023-04-24T15:42:54.515Z,12.01
2023-04-24T15:45:21.225Z,11.74
2023-04-24T15:47:48.142Z,11.36
2023-04-24T15:56:04.772Z,10.55
2023-04-24T16:20:25.179Z,10.33
2023-04-24T16:36:23.990Z,9.80
2023-04-24T16:55:10.890Z,8.41
2023-04-24T16:57:37.989Z,8.35
2023-04-24T17:51:26.245Z,6.80
2023-04-24T17:53:56.219Z,6.75
2023-04-24T18:04:32.044Z,6.38
2023-04-24T18:23:23.045Z,5.93
2023-04-24T19:35:58.140Z,6.22
2023-04-24T20:27:31.100Z,6.35
2023-04-24T20:30:01.010Z,6.36
2023-04-24T20:32:28.241Z,6.40
2023-04-24T20:34:57.348Z,6.38
2023-04-24T20:37:24.979Z,6.41
2023-04-24T20:39:55.010Z,6.40
2023-04-24T20:42:25.769Z,6.42
2023-04-24T20:44:55.946Z,6.42
2023-04-24T20:47:25.961Z,6.38
2023-04-24T20:49:56.443Z,6.39
2023-04-24T20:52:23.191Z,6.40
2023-04-24T20:54:49.973Z,6.43
2023-04-24T20:57:20.978Z,6.42
2023-04-24T20:59:47.899Z,6.49
2023-04-24T21:02:14.918Z,6.53
2023-04-24T21:04:44.410Z,6.54
2023-04-24T21:07:12.896Z,6.56
2023-04-24T21:09:42.922Z,6.63
2023-04-24T21:12:15.944Z,6.63
2023-04-24T21:14:49.791Z,6.65
2023-04-24T21:17:18.024Z,6.69
2023-04-24T21:19:50.291Z,6.70
2023-04-24T21:22:17.065Z,6.71
2023-04-24T21:24:48.228Z,6.74
2023-04-24T21:27:15.103Z,6.77
2023-04-24T21:29:42.952Z,6.74
2023-04-24T21:32:12.325Z,6.73
2023-04-24T21:34:41.529Z,6.77
2023-04-24T21:37:11.408Z,6.77
2023-04-24T21:39:38.183Z,6.78
2023-04-24T21:42:05.126Z,6.79
2023-04-24T21:44:32.090Z,6.82
2023-04-24T21:46:59.506Z,6.82
2023-04-24T21:49:29.035Z,6.86
2023-04-24T21:51:56.177Z,6.85
2023-04-24T21:54:23.041Z,6.86
2023-04-24T21:56:50.128Z,6.86
2023-04-24T21:59:17.649Z,6.91
2023-04-24T22:01:48.481Z,6.91
2023-04-24T22:04:18.326Z,6.92
2023-04-24T22:06:45.082Z,6.90
2023-04-24T22:09:12.334Z,6.88
2023-04-24T22:11:39.130Z,6.84
2023-04-24T22:14:07.098Z,6.80
2023-04-24T22:16:34.502Z,6.76
2023-04-24T22:19:01.389Z,6.80
2023-04-24T22:21:28.621Z,6.75
2023-04-24T22:23:55.500Z,6.74
2023-04-24T22:26:22.719Z,6.72
2023-04-24T22:28:50.718Z,6.73
2023-04-24T22:31:18.010Z,6.71
2023-04-24T22:33:49.574Z,6.73
2023-04-24T22:36:16.439Z,6.68
2023-04-24T22:38:45.828Z,6.67
2023-04-24T22:41:13.049Z,6.64
2023-04-24T22:43:40.077Z,6.57
2023-04-24T22:46:07.004Z,6.51
2023-04-24T22:48:34.584Z,6.56
2023-04-24T22:51:01.615Z,6.54
2023-04-24T22:53:28.948Z,6.51
2023-04-24T22:56:02.799Z,6.53
2023-04-24T22:58:32.874Z,6.50
2023-04-24T23:01:00.019Z,6.54
2023-04-24T23:03:26.944Z,6.55
2023-04-24T23:05:56.907Z,6.56
2023-04-24T23:08:26.288Z,6.52
2023-04-24T23:10:56.517Z,6.54
2023-04-24T23:13:25.870Z,6.53
2023-04-24T23:15:55.137Z,6.56
2023-04-24T23:18:21.996Z,6.59
2023-04-24T23:20:49.035Z,6.56
2023-04-24T23:23:22.127Z,6.46
2023-04-24T23:25:49.182Z,6.36
2023-04-24T23:28:23.416Z,6.33
2023-04-24T23:30:51.987Z,6.22
2023-04-24T23:33:21.078Z,6.11
2023-04-24T23:36:00.174Z,5.98
2023-04-24T23:38:30.117Z,5.91
2023-04-24T23:41:01.800Z,5.92
2023-04-24T23:43:28.522Z,5.92
2023-04-24T23:45:55.403Z,5.89
2023-04-24T23:48:22.515Z,5.85
2023-04-24T23:50:49.412Z,5.88
2023-04-24T23:53:22.964Z,5.84
2023-04-24T23:55:49.927Z,5.79
2023-04-24T23:58:18.815Z,5.81
